createdAt,value
2019-02-26T07:10:37.467Z,115762.50
2019-02-26T07:11:42.958Z,115762.50
2019-02-26T07:13:38.592Z,67.50
2019-02-26T07:14:41.806Z,67.50
2019-02-26T07:16:35.140Z,67.50
2019-02-26T07:17:42.530Z,67.50
2019-02-26T07:19:35.794Z,90.00
2019-02-26T07:20:41.835Z,84.38
2019-02-26T07:22:32.881Z,106.88
2019-02-26T07:23:40.021Z,129.38
2019-02-26T07:25:33.712Z,112.50
2019-02-26T07:26:38.642Z,90.00
2019-02-26T07:28:30.615Z,84.38
2019-02-26T07:29:39.762Z,90.00
2019-02-26T07:31:31.015Z,101.25
2019-02-26T07:32:36.071Z,101.25
2019-02-26T07:34:28.321Z,140.63
2019-02-26T07:35:35.156Z,146.25
2019-02-26T07:37:28.631Z,123.75
2019-02-26T07:38:40.942Z,112.50
2019-02-26T07:40:27.800Z,106.88
2019-02-26T07:41:31.566Z,95.63
2019-02-26T07:43:24.879Z,157.50
2019-02-26T07:44:30.401Z,151.88
2019-02-26T07:46:23.782Z,135.00
2019-02-26T07:47:31.247Z,112.50
2019-02-26T07:49:22.632Z,101.25
2019-02-26T07:50:31.491Z,118.13
2019-02-26T07:52:23.585Z,163.13
2019-02-26T07:53:27.034Z,168.75
2019-02-26T07:55:20.382Z,230.63
2019-02-26T07:56:27.696Z,230.63
2019-02-26T07:58:19.291Z,236.25
2019-02-26T07:59:27.615Z,219.38
2019-02-26T08:01:18.188Z,213.75
2019-02-26T08:02:25.605Z,202.50
2019-02-26T08:04:18.402Z,202.50
2019-02-26T08:05:25.708Z,202.50
2019-02-26T08:07:16.016Z,202.50
2019-02-26T08:08:21.531Z,208.13
2019-02-26T08:10:16.799Z,208.13
2019-02-26T08:11:20.414Z,213.75
2019-02-26T08:13:14.277Z,213.75
2019-02-26T08:14:21.002Z,208.13
2019-02-26T08:16:13.785Z,213.75
2019-02-26T08:17:19.184Z,225.00
2019-02-26T08:19:12.593Z,230.63
2019-02-26T08:20:18.112Z,236.25
2019-02-26T08:22:11.521Z,241.88
2019-02-26T08:23:17.100Z,213.75
2019-02-26T08:25:10.886Z,225.00
2019-02-26T08:26:18.093Z,241.88
2019-02-26T08:28:09.840Z,196.88
2019-02-26T08:29:15.364Z,180.00
2019-02-26T08:31:11.225Z,236.25
2019-02-26T08:32:18.159Z,241.88
2019-02-26T08:34:07.684Z,230.63
2019-02-26T08:35:13.205Z,225.00
2019-02-26T08:37:06.592Z,225.00
2019-02-26T08:38:12.132Z,236.25
2019-02-26T08:40:05.538Z,253.13
2019-02-26T08:41:11.060Z,253.13
2019-02-26T08:43:04.447Z,253.13
2019-02-26T08:44:09.991Z,253.13
2019-02-26T08:46:03.404Z,253.13
2019-02-26T08:47:11.503Z,253.13
2019-02-26T08:49:08.429Z,264.38
2019-02-26T08:50:10.016Z,264.38
2019-02-26T08:52:02.185Z,270.00
2019-02-26T08:53:07.712Z,264.38
2019-02-26T08:55:01.584Z,270.00
2019-02-26T08:56:08.441Z,270.00
2019-02-26T08:58:00.967Z,247.50
2019-02-26T08:59:06.507Z,275.63
2019-02-26T09:00:59.923Z,281.25
2019-02-26T09:02:05.450Z,281.25
2019-02-26T09:04:00.695Z,286.88
2019-02-26T09:05:06.445Z,281.25
2019-02-26T09:07:00.299Z,286.88
2019-02-26T09:08:03.381Z,292.50
2019-02-26T09:09:57.504Z,286.88
2019-02-26T09:11:03.493Z,298.13
2019-02-26T09:12:55.720Z,298.13
2019-02-26T09:14:03.892Z,298.13
2019-02-26T09:15:55.643Z,303.75
2019-02-26T09:17:01.939Z,303.75
2019-02-26T09:18:53.557Z,320.63
2019-02-26T09:20:08.469Z,320.63
2019-02-26T09:21:54.648Z,326.25
2019-02-26T09:22:59.533Z,309.38
2019-02-26T09:24:52.050Z,303.75
2019-02-26T09:25:57.761Z,320.63
2019-02-26T09:27:50.367Z,337.50
2019-02-26T09:28:57.181Z,331.88
2019-02-26T09:30:49.283Z,320.63
2019-02-26T09:31:54.827Z,331.88
2019-02-26T09:33:48.246Z,303.75
2019-02-26T09:34:54.478Z,292.50
2019-02-26T09:36:50.624Z,303.75
2019-02-26T09:37:55.418Z,298.13
2019-02-26T09:39:46.098Z,337.50
2019-02-26T09:40:52.434Z,331.88
2019-02-26T09:42:46.854Z,337.50
2019-02-26T09:43:50.579Z,343.13
2019-02-26T09:45:45.723Z,343.13
2019-02-26T09:46:49.520Z,348.75
2019-02-26T09:48:45.179Z,348.75
2019-02-26T09:49:49.449Z,354.38
2019-02-26T09:51:41.882Z,354.38
2019-02-26T09:52:48.643Z,354.38
2019-02-26T09:54:42.932Z,354.38
2019-02-26T09:55:46.353Z,354.38
2019-02-26T09:57:39.790Z,354.38
2019-02-26T09:58:46.458Z,354.38
2019-02-26T10:00:40.388Z,371.25
2019-02-26T10:01:44.238Z,382.50
2019-02-26T10:03:39.112Z,376.88
2019-02-26T10:04:44.923Z,371.25
2019-02-26T10:06:37.943Z,354.38
2019-02-26T10:07:42.082Z,315.00
2019-02-26T10:09:37.547Z,343.13
2019-02-26T10:10:41.006Z,343.13
2019-02-26T10:12:36.961Z,365.63
2019-02-26T10:13:41.935Z,365.63
2019-02-26T10:15:34.793Z,371.25
2019-02-26T10:16:39.794Z,371.25
2019-02-26T10:18:33.214Z,371.25
2019-02-26T10:19:40.590Z,371.25
2019-02-26T10:21:33.174Z,365.63
2019-02-26T10:22:38.668Z,365.63
2019-02-26T10:24:33.023Z,382.50
2019-02-26T10:25:38.664Z,382.50
2019-02-26T10:27:33.709Z,382.50
2019-02-26T10:28:39.432Z,382.50
2019-02-26T10:30:31.451Z,388.13
2019-02-26T10:31:34.484Z,393.75
2019-02-26T10:33:28.976Z,388.13
2019-02-26T10:34:33.887Z,393.75
2019-02-26T10:36:30.381Z,393.75
2019-02-26T10:37:34.211Z,399.38
2019-02-26T10:39:28.192Z,410.63
2019-02-26T10:40:35.670Z,410.63
2019-02-26T10:42:25.250Z,393.75
2019-02-26T10:43:30.730Z,410.63
2019-02-26T10:45:24.162Z,421.88
2019-02-26T10:46:32.129Z,281.25
2019-02-26T10:48:25.098Z,416.25
2019-02-26T10:49:28.817Z,427.50
2019-02-26T10:51:26.154Z,427.50
2019-02-26T10:52:28.662Z,416.25
2019-02-26T10:54:21.004Z,427.50
2019-02-26T10:55:33.343Z,410.63
2019-02-26T10:57:19.938Z,433.13
2019-02-26T10:58:25.480Z,427.50
2019-02-26T11:00:18.904Z,444.38
2019-02-26T11:01:27.572Z,438.75
2019-02-26T11:03:20.123Z,354.38
2019-02-26T11:04:23.389Z,264.38
2019-02-26T11:06:19.043Z,191.25
2019-02-26T11:07:22.308Z,191.25
2019-02-26T11:09:21.178Z,185.63
2019-02-26T11:10:23.213Z,185.63
2019-02-26T11:12:14.607Z,185.63
2019-02-26T11:13:22.831Z,185.63
2019-02-26T11:15:13.532Z,191.25
2019-02-26T11:16:25.202Z,191.25
2019-02-26T11:18:15.010Z,202.50
2019-02-26T11:19:18.425Z,202.50
2019-02-26T11:21:11.813Z,202.50
2019-02-26T11:22:18.725Z,202.50
2019-02-26T11:24:11.271Z,202.50
2019-02-26T11:25:18.512Z,191.25
2019-02-26T11:27:09.636Z,196.88
2019-02-26T11:28:15.110Z,202.50
2019-02-26T11:30:08.968Z,202.50
2019-02-26T11:31:16.418Z,202.50
2019-02-26T11:33:10.183Z,185.63
2019-02-26T11:34:13.496Z,185.63
2019-02-26T11:36:08.091Z,174.38
2019-02-26T11:37:12.223Z,174.38
2019-02-26T11:39:06.824Z,157.50
2019-02-26T11:40:11.562Z,163.13
2019-02-26T11:42:04.947Z,168.75
2019-02-26T11:43:12.417Z,168.75
2019-02-26T11:45:06.617Z,168.75
2019-02-26T11:46:09.336Z,157.50
2019-02-26T11:48:03.673Z,140.63
2019-02-26T11:49:09.371Z,146.25
2019-02-26T11:51:01.591Z,146.25
2019-02-26T11:52:07.112Z,146.25
2019-02-26T11:54:02.543Z,146.25
2019-02-26T11:55:08.490Z,151.88
2019-02-26T11:56:59.811Z,151.88
2019-02-26T11:58:07.760Z,151.88
2019-02-26T11:59:59.405Z,146.25
2019-02-26T12:01:04.237Z,146.25
2019-02-26T12:02:57.589Z,140.63
2019-02-26T12:04:05.515Z,140.63
2019-02-26T12:05:58.465Z,140.63
2019-02-26T12:07:04.111Z,146.25
2019-02-26T12:08:55.362Z,146.25
2019-02-26T12:10:07.254Z,146.25
2019-02-26T12:11:56.040Z,146.25
2019-02-26T12:13:02.162Z,146.25
2019-02-26T12:14:53.596Z,146.25
2019-02-26T12:15:59.096Z,151.88
2019-02-26T12:17:54.064Z,146.25
2019-02-26T12:18:59.341Z,146.25
2019-02-26T12:20:51.825Z,146.25
2019-02-26T12:22:00.653Z,140.63
2019-02-26T12:23:50.688Z,140.63
2019-02-26T12:24:58.854Z,135.00
2019-02-26T12:26:49.989Z,135.00
2019-02-26T12:27:55.099Z,135.00
2019-02-26T12:29:51.627Z,135.00
2019-02-26T12:30:54.431Z,135.00
2019-02-26T12:32:49.944Z,135.00
2019-02-26T12:33:53.315Z,135.00
2019-02-26T12:35:47.153Z,135.00
2019-02-26T12:36:53.720Z,135.00
2019-02-26T12:38:48.198Z,135.00
2019-02-26T12:39:54.808Z,135.00
2019-02-26T12:41:47.977Z,140.63
2019-02-26T12:42:50.907Z,140.63
2019-02-26T12:44:45.388Z,140.63
2019-02-26T12:45:51.435Z,135.00
2019-02-26T12:47:45.555Z,135.00
2019-02-26T12:48:50.306Z,135.00
2019-02-26T12:50:42.445Z,135.00
2019-02-26T12:51:50.329Z,135.00
2019-02-26T12:53:44.070Z,135.00
2019-02-26T12:54:47.307Z,135.00
2019-02-26T12:56:40.706Z,129.38
2019-02-26T12:57:47.214Z,129.38
2019-02-26T12:59:40.009Z,140.63
2019-02-26T13:00:45.537Z,146.25
2019-02-26T13:02:39.984Z,163.13
2019-02-26T13:03:47.266Z,174.38
2019-02-26T13:05:41.411Z,191.25
2019-02-26T13:06:47.670Z,196.88
2019-02-26T13:08:39.842Z,219.38
2019-02-26T13:11:36.003Z,258.75
2019-02-26T13:12:45.379Z,258.75
2019-02-26T13:14:34.900Z,253.13
2019-02-26T13:15:40.406Z,253.13
2019-02-26T13:17:33.728Z,241.88
2019-02-26T13:18:39.253Z,241.88
2019-02-26T13:20:32.630Z,241.88
2019-02-26T13:21:42.724Z,241.88
2019-02-26T13:23:31.523Z,247.50
2019-02-26T13:24:37.033Z,247.50
2019-02-26T13:26:36.217Z,253.13
2019-02-26T13:27:38.767Z,258.75
2019-02-26T13:29:29.774Z,264.38
2019-02-26T13:30:35.259Z,270.00
2019-02-26T13:32:32.249Z,292.50
2019-02-26T13:33:37.765Z,286.88
2019-02-26T13:35:28.821Z,286.88
2019-02-26T13:36:36.360Z,275.63
2019-02-26T13:38:33.802Z,258.75
2019-02-26T13:41:30.098Z,219.38
2019-02-26T13:42:31.727Z,208.13
2019-02-26T13:44:25.086Z,191.25
2019-02-26T13:45:30.615Z,191.25
2019-02-26T13:47:23.996Z,185.63
2019-02-26T13:48:29.502Z,191.25
2019-02-26T13:50:23.348Z,191.25
2019-02-26T13:51:28.851Z,191.25
2019-02-26T13:53:22.203Z,191.25
2019-02-26T13:54:27.734Z,191.25
2019-02-26T13:56:21.114Z,191.25
2019-02-26T13:57:26.635Z,191.25
2019-02-26T13:59:20.584Z,185.63
2019-02-26T14:00:26.599Z,180.00
2019-02-26T14:02:18.869Z,168.75
2019-02-26T14:03:24.363Z,163.13
2019-02-26T14:05:17.726Z,151.88
2019-02-26T14:06:23.253Z,146.25
2019-02-26T14:08:16.638Z,135.00
2019-02-26T14:09:22.721Z,135.00
2019-02-26T14:11:15.499Z,129.38
2019-02-26T14:12:21.035Z,123.75
2019-02-26T14:14:14.784Z,123.75
2019-02-26T14:15:19.928Z,118.13
2019-02-26T14:17:13.282Z,118.13
2019-02-26T14:18:18.812Z,123.75
2019-02-26T14:20:12.192Z,129.38
2019-02-26T14:21:17.697Z,129.38
2019-02-26T14:23:11.075Z,135.00
2019-02-26T14:24:16.581Z,140.63
2019-02-26T14:26:09.941Z,140.63
2019-02-26T14:27:15.467Z,140.63
2019-02-26T14:29:08.851Z,140.63
2019-02-26T14:30:14.355Z,140.63
2019-02-26T14:32:07.707Z,146.25
2019-02-26T14:33:13.241Z,146.25
2019-02-26T14:35:06.620Z,146.25
2019-02-26T14:36:12.118Z,146.25
2019-02-26T14:38:05.478Z,140.63
2019-02-26T14:39:11.001Z,135.00
2019-02-26T14:41:04.835Z,123.75
2019-02-26T14:42:10.341Z,118.13
2019-02-26T14:44:03.668Z,112.50
2019-02-26T14:45:09.198Z,112.50
2019-02-26T14:47:03.081Z,112.50
2019-02-26T14:48:08.546Z,112.50
2019-02-26T14:50:01.944Z,112.50
2019-02-26T14:51:07.440Z,112.50
2019-02-26T14:53:00.780Z,112.50
2019-02-26T14:54:06.558Z,112.50
2019-02-26T14:55:59.701Z,112.50
2019-02-26T14:57:05.203Z,112.50
2019-02-26T14:58:58.552Z,112.50
2019-02-26T15:00:04.081Z,112.50
2019-02-26T15:01:57.460Z,106.88
2019-02-26T15:03:02.960Z,106.88
2019-02-26T15:04:57.076Z,106.88
2019-02-26T15:06:01.845Z,101.25
2019-02-26T15:07:55.700Z,95.63
2019-02-26T15:09:01.196Z,95.63
2019-02-26T15:10:54.556Z,95.63
2019-02-26T15:12:00.076Z,90.00
2019-02-26T15:13:53.457Z,84.38
2019-02-26T15:14:58.962Z,84.38
2019-02-26T15:16:52.431Z,78.75
2019-02-26T15:17:57.841Z,78.75
2019-02-26T15:19:53.213Z,78.75
2019-02-26T15:20:57.182Z,78.75
2019-02-26T15:22:50.565Z,84.38
2019-02-26T15:23:56.062Z,84.38
2019-02-26T15:25:49.876Z,90.00
2019-02-26T15:26:55.401Z,90.00
2019-02-26T15:28:49.111Z,90.00
2019-02-26T15:29:54.277Z,90.00
2019-02-26T15:31:47.651Z,84.38
2019-02-26T15:32:53.158Z,84.38
2019-02-26T15:34:46.542Z,78.75
2019-02-26T15:35:52.040Z,78.75
2019-02-26T15:37:45.444Z,73.13
2019-02-26T15:38:50.935Z,73.13
2019-02-26T15:40:44.406Z,73.13
2019-02-26T15:41:50.563Z,73.13
2019-02-26T15:43:43.282Z,73.13
2019-02-26T15:44:48.690Z,73.13
2019-02-26T15:46:42.051Z,73.13
2019-02-26T15:47:47.577Z,67.50
2019-02-26T15:49:40.950Z,67.50
2019-02-26T15:50:46.452Z,61.88
2019-02-26T15:52:39.814Z,61.88
2019-02-26T15:53:45.334Z,61.88
2019-02-26T15:55:38.726Z,61.88
2019-02-26T15:56:44.209Z,61.88
2019-02-26T15:58:38.063Z,67.50
2019-02-26T15:59:43.559Z,67.50
2019-02-26T16:01:36.916Z,61.88
2019-02-26T16:02:42.435Z,61.88
2019-02-26T16:04:36.282Z,56.25
2019-02-26T16:05:41.779Z,50.63
2019-02-26T16:07:35.089Z,45.00
2019-02-26T16:08:41.241Z,45.00
2019-02-26T16:10:33.991Z,45.00
2019-02-26T16:11:39.616Z,45.00
2019-02-26T16:13:32.813Z,45.00
2019-02-26T16:14:38.610Z,45.00
2019-02-26T16:16:32.166Z,39.38
2019-02-26T16:17:37.669Z,39.38
2019-02-26T16:19:31.061Z,33.75
2019-02-26T16:20:36.547Z,33.75
2019-02-26T16:22:29.909Z,33.75
2019-02-26T16:23:35.422Z,33.75
2019-02-26T16:25:28.797Z,28.13
2019-02-26T16:26:34.299Z,28.13
2019-02-26T16:28:27.980Z,28.13
2019-02-26T16:29:33.195Z,28.13
2019-02-26T16:31:29.683Z,22.50
2019-02-26T16:32:32.061Z,22.50
2019-02-26T16:34:25.380Z,16.88
2019-02-26T16:35:30.904Z,16.88
2019-02-26T16:37:24.280Z,11.25
2019-02-26T16:38:29.782Z,11.25
2019-02-26T16:40:23.159Z,11.25
2019-02-26T16:41:28.670Z,11.25
2019-02-26T16:43:22.012Z,5.63
2019-02-26T16:44:27.526Z,5.63
2019-02-26T16:46:20.902Z,5.63
2019-02-26T16:47:26.405Z,5.63
2019-02-26T16:49:21.152Z,5.63
2019-02-26T16:50:25.283Z,5.63
2019-02-26T16:52:18.660Z,0.00
2019-02-26T16:53:24.146Z,0.00
2019-02-26T16:55:18.005Z,0.00
2019-02-26T16:56:23.513Z,0.00
2019-02-26T16:58:16.843Z,0.00
2019-02-26T16:59:22.367Z,0.00
2019-02-26T17:01:16.214Z,0.00
2019-02-26T17:02:21.708Z,0.00
2019-02-26T17:04:15.523Z,0.00
2019-02-26T17:05:21.666Z,0.00
2019-02-26T17:07:14.409Z,0.00
2019-02-26T17:08:19.999Z,0.00
2019-02-26T17:10:13.263Z,0.00
2019-02-26T17:11:18.782Z,0.00
2019-02-26T17:13:12.156Z,0.00
2019-02-26T17:14:18.026Z,0.00
2019-02-26T17:16:11.019Z,0.00
2019-02-26T17:17:16.523Z,0.00
2019-02-26T17:19:10.615Z,0.00
2019-02-26T17:20:15.852Z,0.00
2019-02-26T17:22:09.228Z,0.00
2019-02-26T17:23:14.730Z,0.00
2019-02-26T17:25:08.097Z,0.00
2019-02-26T17:26:13.638Z,0.00
2019-02-26T17:28:09.466Z,0.00
2019-02-26T17:29:14.831Z,0.00
2019-02-26T17:31:06.761Z,0.00
2019-02-26T17:32:12.283Z,0.00
2019-02-26T17:34:05.652Z,0.00
2019-02-26T17:35:11.151Z,0.00
2019-02-26T17:37:06.541Z,0.00
2019-02-26T17:38:10.019Z,0.00
2019-02-26T17:40:03.856Z,0.00
2019-02-26T17:41:09.963Z,0.00
2019-02-26T17:43:02.228Z,0.00
2019-02-26T17:44:07.726Z,0.00
2019-02-26T17:46:01.071Z,0.00
2019-02-26T17:47:06.591Z,0.00
2019-02-26T17:49:02.647Z,0.00
2019-02-26T17:50:05.458Z,0.00
2019-02-26T17:51:58.802Z,0.00
2019-02-26T17:53:04.324Z,0.00
2019-02-26T17:54:57.655Z,0.00
2019-02-26T17:56:03.150Z,0.00
2019-02-26T17:57:56.499Z,0.00
2019-02-26T17:59:02.023Z,0.00
2019-02-26T18:00:55.398Z,0.00
2019-02-26T18:02:00.896Z,0.00
2019-02-26T18:03:54.233Z,0.00
2019-02-26T18:05:00.883Z,0.00
2019-02-26T18:06:53.552Z,0.00
2019-02-26T18:07:59.073Z,0.00
2019-02-26T18:09:52.440Z,0.00
2019-02-26T18:10:57.941Z,0.00
2019-02-26T18:12:51.767Z,0.00
2019-02-26T18:13:57.825Z,0.00
2019-02-26T18:15:50.643Z,0.00
2019-02-26T18:16:56.143Z,0.00
2019-02-26T18:18:49.613Z,0.00
2019-02-26T18:19:55.005Z,0.00
2019-02-26T18:21:48.371Z,0.00
2019-02-26T18:22:53.870Z,0.00
2019-02-26T18:24:47.219Z,0.00
2019-02-26T18:25:52.737Z,0.00
2019-02-26T18:27:46.777Z,0.00
2019-02-26T18:28:53.180Z,0.00
2019-02-26T18:30:45.860Z,0.00
2019-02-26T18:31:51.379Z,0.00
